Time;durP1;ratioP1;P1;durP2;ratioP2;P2;SDS_P1;SDS_P2;PMS_P1;PMS_P2;Temp;Humidity;BMP_temperature;BMP_pressure;BME280_temperature;BME280_humidity;BME280_pressure;Samples;Min_cycle;Max_cycle;Signal;HPM_P1;HPM_P2
2021/04/04 00:02:38;;;;;;;60.40;21.25;;;0.00;99.90;;;;;;8424531;28;20081;-64
2021/04/04 00:06:39;;;;;;;58.00;20.85;;;-0.10;99.90;;;;;;8423885;28;20059;-64
2021/04/04 00:10:40;;;;;;;60.78;21.15;;;0.00;99.90;;;;;;8420094;28;20028;-64
2021/04/04 00:14:40;;;;;;;59.92;20.88;;;0.10;99.90;;;;;;8429631;28;20502;-63
2021/04/04 00:18:41;;;;;;;62.58;21.35;;;0.10;99.90;;;;;;8431143;28;20031;-64
2021/04/04 00:22:42;;;;;;;62.50;20.73;;;0.30;99.90;;;;;;8430753;28;20039;-64
2021/04/04 00:26:43;;;;;;;64.88;21.45;;;0.10;99.90;;;;;;8430728;28;20027;-64
2021/04/04 00:30:43;;;;;;;64.00;21.35;;;0.00;99.90;;;;;;8430118;28;20020;-64
2021/04/04 00:34:44;;;;;;;63.88;21.23;;;-0.10;99.90;;;;;;8430426;28;20024;-63
2021/04/04 00:38:44;;;;;;;61.22;20.73;;;-0.30;99.90;;;;;;8430322;28;20027;-64
2021/04/04 00:42:45;;;;;;;61.78;21.23;;;-0.30;99.90;;;;;;8430163;28;20019;-64
2021/04/04 00:46:46;;;;;;;58.40;20.95;;;-0.40;99.90;;;;;;8428210;28;20049;-64
2021/04/04 00:50:47;;;;;;;58.00;20.58;;;-0.30;99.90;;;;;;8411832;28;20028;-63
2021/04/04 00:54:47;;;;;;;53.72;20.08;;;-0.20;99.90;;;;;;8428712;28;20028;-63
2021/04/04 00:58:48;;;;;;;52.30;20.08;;;-0.20;99.90;;;;;;8411612;28;20035;-64
2021/04/04 01:02:50;;;;;;;52.90;20.30;;;-0.40;99.90;;;;;;8427735;28;20554;-63
2021/04/04 01:06:51;;;;;;;55.70;20.73;;;-0.60;99.90;;;;;;8411352;28;20586;-64
2021/04/04 01:10:52;;;;;;;53.75;20.20;;;-0.40;99.90;;;;;;8411238;28;20032;-64
2021/04/04 01:15:03;;;;;;;55.28;20.55;;;-0.60;99.90;;;;;;8429039;28;20563;-64
2021/04/04 01:19:22;;;;;;;54.78;20.20;;;-0.60;99.90;;;;;;8410803;28;20567;-64
2021/04/04 01:23:49;;;;;;;57.65;20.95;;;-0.60;99.90;;;;;;8410575;28;20494;-63
2021/04/04 01:27:55;;;;;;;58.00;20.83;;;-0.60;99.90;;;;;;8428670;28;20039;-64
2021/04/04 01:31:55;;;;;;;58.28;20.95;;;-0.90;99.90;;;;;;8428814;28;20466;-63
2021/04/04 01:35:58;;;;;;;57.10;20.85;;;-1.10;99.90;;;;;;8427717;28;20016;-64
2021/04/04 01:40:01;;;;;;;57.58;20.85;;;-1.00;99.90;;;;;;8409422;28;20039;-65
2021/04/04 01:44:10;;;;;;;57.78;20.83;;;-1.10;99.90;;;;;;8427597;28;20024;-64
2021/04/04 01:48:14;;;;;;;58.80;21.05;;;-1.10;99.90;;;;;;8409210;28;20025;-64
2021/04/04 01:52:15;;;;;;;58.25;20.75;;;-0.90;99.90;;;;;;8427990;28;20050;-64
2021/04/04 01:56:16;;;;;;;59.22;21.05;;;-0.80;99.90;;;;;;8427884;28;20032;-63
2021/04/04 02:00:23;;;;;;;59.75;21.05;;;-1.10;99.90;;;;;;8427639;28;20050;-64
2021/04/04 02:04:25;;;;;;;59.90;21.10;;;-1.10;99.90;;;;;;8407063;28;20647;-64
2021/04/04 02:08:26;;;;;;;60.88;21.13;;;-1.10;99.90;;;;;;8426640;28;20038;-64
2021/04/04 02:12:28;;;;;;;60.08;20.73;;;-1.30;99.90;;;;;;8408984;28;20028;-64
2021/04/04 02:16:30;;;;;;;60.00;20.83;;;-1.30;99.90;;;;;;8427278;28;20068;-64
2021/04/04 02:20:32;;;;;;;60.45;21.05;;;-1.40;99.90;;;;;;8409180;28;20032;-64
2021/04/04 02:24:33;;;;;;;60.40;21.20;;;-1.30;99.90;;;;;;8426915;28;20027;-64
2021/04/04 02:28:33;;;;;;;59.85;20.92;;;-1.10;99.90;;;;;;8408851;28;20482;-64
2021/04/04 02:32:43;;;;;;;59.55;20.95;;;-1.00;99.90;;;;;;8408350;28;20025;-65
2021/04/04 02:36:43;;;;;;;59.25;20.75;;;-1.10;99.90;;;;;;8426771;28;20039;-64
2021/04/04 02:40:46;;;;;;;58.42;20.73;;;-1.00;99.90;;;;;;8425925;28;20032;-64
2021/04/04 02:44:50;;;;;;;58.55;20.90;;;-1.00;99.90;;;;;;8406364;28;20186;-63
2021/04/04 02:49:02;;;;;;;58.70;21.02;;;-1.00;99.90;;;;;;8426525;28;20024;-64
2021/04/04 02:53:04;;;;;;;57.38;20.55;;;-1.10;99.90;;;;;;8426415;28;20061;-64
2021/04/04 02:57:06;;;;;;;56.47;20.52;;;-1.10;99.90;;;;;;8426203;28;20020;-64
2021/04/04 03:01:09;;;;;;;55.67;20.17;;;-1.10;99.90;;;;;;8425947;28;20530;-65
2021/04/04 03:05:09;;;;;;;54.83;20.35;;;-1.20;99.90;;;;;;8426240;28;20088;-64
2021/04/04 03:09:12;;;;;;;54.78;20.45;;;-1.10;99.90;;;;;;8425989;28;20062;-64
2021/04/04 03:13:13;;;;;;;54.80;20.40;;;-1.00;99.90;;;;;;8407236;28;20058;-65
2021/04/04 03:17:15;;;;;;;54.13;20.42;;;-1.10;99.90;;;;;;8426084;28;20032;-65
2021/04/04 03:21:17;;;;;;;53.97;20.25;;;-1.10;99.90;;;;;;8425994;28;20053;-64
2021/04/04 03:25:19;;;;;;;52.67;20.10;;;-1.00;99.90;;;;;;8425831;28;20035;-64
2021/04/04 03:29:21;;;;;;;54.20;20.65;;;-1.10;99.90;;;;;;8425997;28;20020;-65
2021/04/04 03:33:23;;;;;;;53.80;20.58;;;-1.30;99.90;;;;;;8425619;28;20447;-65
2021/04/04 03:37:24;;;;;;;51.22;19.95;;;-1.30;99.90;;;;;;8425790;28;20028;-64
2021/04/04 03:41:26;;;;;;;49.03;19.70;;;-1.40;99.90;;;;;;8407426;28;20055;-64
2021/04/04 03:45:27;;;;;;;48.53;19.58;;;-1.40;99.90;;;;;;8428703;28;20032;-65
2021/04/04 03:49:29;;;;;;;48.78;19.60;;;-1.50;99.90;;;;;;8431935;28;20055;-64
2021/04/04 03:53:32;;;;;;;47.13;19.30;;;-1.40;99.90;;;;;;8422434;28;20024;-64
2021/04/04 03:57:35;;;;;;;48.35;19.52;;;-1.30;99.90;;;;;;8431970;28;20036;-63
2021/04/04 04:01:39;;;;;;;49.55;19.73;;;-1.40;99.90;;;;;;8431096;28;20059;-64
2021/04/04 04:05:40;;;;;;;51.40;19.95;;;-1.50;99.90;;;;;;8431409;28;20086;-64
2021/04/04 04:09:41;;;;;;;51.75;20.00;;;-1.60;99.90;;;;;;8431208;28;20697;-64
2021/04/04 04:13:43;;;;;;;50.30;19.85;;;-1.90;99.90;;;;;;8430524;28;20039;-64
2021/04/04 04:17:46;;;;;;;51.60;19.75;;;-2.00;99.90;;;;;;8413108;28;20031;-64
2021/04/04 04:21:48;;;;;;;50.67;20.10;;;-1.80;99.90;;;;;;8430119;28;20119;-63
2021/04/04 04:25:50;;;;;;;50.45;19.73;;;-1.60;99.90;;;;;;8430713;28;20085;-64
2021/04/04 04:29:51;;;;;;;48.35;19.73;;;-1.50;99.90;;;;;;8430891;28;20024;-64
2021/04/04 04:33:54;;;;;;;48.03;19.17;;;-1.80;99.90;;;;;;8430752;28;20028;-64
2021/04/04 04:37:56;;;;;;;51.88;20.17;;;-1.70;99.90;;;;;;8430551;28;20502;-63
2021/04/04 04:41:57;;;;;;;52.88;20.25;;;-1.40;99.90;;;;;;8430280;28;20086;-64
2021/04/04 04:45:58;;;;;;;52.33;20.15;;;-1.40;99.90;;;;;;8411167;28;20060;-64
2021/04/04 04:49:59;;;;;;;51.92;20.17;;;-1.60;99.90;;;;;;8429094;28;20024;-64
2021/04/04 04:53:59;;;;;;;51.53;20.02;;;-1.50;99.90;;;;;;8428515;28;20060;-63
2021/04/04 04:58:03;;;;;;;53.58;20.60;;;-1.70;99.90;;;;;;8428884;28;20031;-64
2021/04/04 05:02:06;;;;;;;51.47;19.88;;;-1.90;99.90;;;;;;8428236;28;20085;-64
2021/04/04 05:06:12;;;;;;;53.22;20.27;;;-1.80;99.90;;;;;;8425445;28;20027;-64
2021/04/04 05:10:14;;;;;;;53.50;20.55;;;-1.60;99.90;;;;;;8408781;28;20030;-63
2021/04/04 05:14:14;;;;;;;53.30;20.27;;;-1.50;99.90;;;;;;8428160;28;20028;-64
2021/04/04 05:18:15;;;;;;;53.05;20.25;;;-1.50;99.90;;;;;;8427019;28;20607;-64
2021/04/04 05:22:17;;;;;;;53.78;20.55;;;-1.40;99.90;;;;;;8409762;28;20047;-64
2021/04/04 05:26:21;;;;;;;53.40;20.25;;;-1.30;99.90;;;;;;8433577;28;20008;-64
2021/04/04 05:30:25;;;;;;;52.88;19.83;;;-1.00;99.90;;;;;;8426258;28;20086;-64
2021/04/04 05:34:29;;;;;;;51.42;19.77;;;-0.80;99.90;;;;;;8409597;28;20058;-64
2021/04/04 05:38:30;;;;;;;52.05;20.08;;;-0.60;99.90;;;;;;8426030;28;20038;-64
2021/04/04 05:42:35;;;;;;;52.22;19.92;;;-0.40;99.90;;;;;;8422737;28;20028;-64
2021/04/04 05:46:40;;;;;;;53.83;20.23;;;-0.20;99.90;;;;;;8428377;28;20029;-64
2021/04/04 05:50:58;;;;;;;54.60;20.20;;;-0.10;99.90;;;;;;8423948;28;20024;-64
2021/04/04 05:55:25;;;;;;;57.72;20.70;;;0.20;99.90;;;;;;8427174;28;20049;-63
2021/04/04 05:59:47;;;;;;;60.45;20.90;;;0.30;99.90;;;;;;8425152;28;20031;-63
2021/04/04 06:03:48;;;;;;;60.00;20.92;;;0.60;99.90;;;;;;8394907;28;20036;-64
2021/04/04 06:08:30;;;;;;;59.22;21.10;;;0.70;99.90;;;;;;8426127;28;20406;-64
2021/04/04 06:12:49;;;;;;;61.20;21.13;;;1.00;99.90;;;;;;8400732;28;20036;-64
2021/04/04 06:16:54;;;;;;;66.25;21.40;;;1.10;99.90;;;;;;8426022;28;20385;-64
2021/04/04 06:21:34;;;;;;;65.13;21.25;;;1.30;99.90;;;;;;8425905;28;20107;-64
2021/04/04 06:25:53;;;;;;;67.88;21.35;;;1.40;99.90;;;;;;8424885;28;20024;-64
2021/04/04 06:30:04;;;;;;;69.82;21.70;;;1.70;99.90;;;;;;8425792;28;20457;-64
2021/04/04 06:34:13;;;;;;;67.95;21.45;;;2.00;99.90;;;;;;8351512;22;20041;-66
2021/04/04 06:38:40;;;;;;;70.45;21.65;;;2.30;99.90;;;;;;8325324;28;20647;-66
2021/04/04 06:42:55;;;;;;;74.70;21.80;;;2.50;99.90;;;;;;8321753;28;20104;-66
2021/04/04 06:46:59;;;;;;;75.82;21.60;;;3.00;99.90;;;;;;8320600;28;20072;-66
2021/04/04 06:51:13;;;;;;;69.22;20.90;;;5.20;99.90;;;;;;8310656;28;20021;-66
2021/04/04 06:55:39;;;;;;;66.25;20.88;;;5.50;99.90;;;;;;8313449;28;20102;-67
2021/04/04 07:00:04;;;;;;;59.03;19.88;;;5.50;99.90;;;;;;8308280;28;20159;-66
2021/04/04 07:04:12;;;;;;;56.67;19.42;;;6.10;99.90;;;;;;8324927;28;20057;-66
2021/04/04 07:08:32;;;;;;;55.25;19.65;;;6.00;99.90;;;;;;8314957;28;20052;-66
2021/04/04 07:12:51;;;;;;;53.50;19.08;;;6.60;99.90;;;;;;8324250;28;20125;-66
2021/04/04 07:16:54;;;;;;;55.10;19.10;;;6.70;99.90;;;;;;8307666;28;20029;-66
2021/04/04 07:21:10;;;;;;;55.53;19.55;;;6.40;99.90;;;;;;8314007;28;20080;-66
2021/04/04 07:25:44;;;;;;;59.20;20.00;;;6.20;99.90;;;;;;8322938;28;20034;-66
2021/04/04 07:30:35;;;;;;;60.45;20.10;;;5.60;99.90;;;;;;8325906;28;20028;-66
2021/04/04 07:34:55;;;;;;;56.42;19.92;;;5.50;99.90;;;;;;8252392;28;20041;-66
2021/04/04 07:39:23;;;;;;;55.67;19.63;;;6.40;99.90;;;;;;8312936;28;20022;-66
2021/04/04 07:43:40;;;;;;;56.33;19.70;;;6.60;99.90;;;;;;8312548;28;20025;-66
2021/04/04 07:47:54;;;;;;;52.60;19.33;;;6.50;99.90;;;;;;8311198;28;20022;-66
2021/04/04 07:51:57;;;;;;;52.72;19.40;;;7.60;99.90;;;;;;8315080;28;20025;-67
2021/04/04 07:56:11;;;;;;;52.08;19.33;;;7.80;99.90;;;;;;8302852;28;20036;-67
2021/04/04 08:00:13;;;;;;;52.38;20.05;;;7.90;99.90;;;;;;8315965;28;20048;-68
2021/04/04 08:04:27;;;;;;;52.22;19.63;;;8.30;99.90;;;;;;8329192;28;20033;-68
2021/04/04 08:08:39;;;;;;;52.67;19.77;;;7.70;99.90;;;;;;8311766;28;20026;-67
2021/04/04 08:13:00;;;;;;;52.45;19.70;;;7.60;99.90;;;;;;8314834;28;20511;-67
2021/04/04 08:17:01;;;;;;;52.33;19.58;;;7.70;99.90;;;;;;8337544;28;20091;-67
2021/04/04 08:21:27;;;;;;;52.20;19.92;;;7.90;99.90;;;;;;8322123;28;20120;-67
2021/04/04 08:25:44;;;;;;;52.58;20.17;;;8.20;99.90;;;;;;8324025;28;20036;-68
2021/04/04 08:30:06;;;;;;;51.83;19.88;;;8.70;99.90;;;;;;8308873;28;20029;-67
2021/04/04 08:34:16;;;;;;;51.28;19.70;;;9.50;99.90;;;;;;8325694;28;20033;-67
2021/04/04 08:38:35;;;;;;;49.80;19.60;;;10.10;99.90;;;;;;8324272;28;20338;-64
2021/04/04 08:42:36;;;;;;;50.10;19.83;;;9.80;96.60;;;;;;8327235;28;20484;-65
2021/04/04 08:46:51;;;;;;;50.40;19.92;;;9.50;95.50;;;;;;8344465;28;20071;-65
2021/04/04 08:50:54;;;;;;;49.92;19.48;;;9.60;98.80;;;;;;8350413;28;20062;-65
2021/04/04 08:54:55;;;;;;;50.45;19.88;;;9.70;97.70;;;;;;8355328;28;20025;-65
2021/04/04 08:58:59;;;;;;;50.60;19.83;;;9.50;94.00;;;;;;8350729;28;20025;-64
2021/04/04 09:03:20;;;;;;;50.83;20.00;;;9.50;95.90;;;;;;8330280;28;20037;-65
2021/04/04 09:07:21;;;;;;;51.15;20.20;;;9.70;93.40;;;;;;8351238;28;20051;-65
2021/04/04 09:11:22;;;;;;;51.50;19.85;;;9.70;94.90;;;;;;8355336;28;20029;-65
2021/04/04 09:15:24;;;;;;;51.35;20.33;;;10.00;94.20;;;;;;8352852;28;20407;-65
2021/04/04 09:19:33;;;;;;;51.50;20.05;;;10.10;90.30;;;;;;8348208;28;20029;-64
2021/04/04 09:23:36;;;;;;;52.55;20.40;;;10.10;89.10;;;;;;8314926;28;20060;-64
2021/04/04 09:27:42;;;;;;;51.90;20.45;;;10.40;92.10;;;;;;8316872;28;20408;-64
2021/04/04 09:31:49;;;;;;;52.70;20.30;;;10.80;81.50;;;;;;8304707;28;20503;-65
2021/04/04 09:35:58;;;;;;;52.40;20.10;;;11.00;88.30;;;;;;8309026;28;20052;-65
2021/04/04 09:39:59;;;;;;;53.75;20.40;;;10.80;80.50;;;;;;8320377;28;20029;-65
2021/04/04 09:44:05;;;;;;;54.92;20.95;;;11.20;88.40;;;;;;8317369;28;20026;-65
2021/04/04 09:48:18;;;;;;;53.85;20.50;;;11.70;88.30;;;;;;8311931;28;20045;-65
2021/04/04 09:52:28;;;;;;;54.95;20.98;;;11.90;80.40;;;;;;8327267;28;20491;-65
2021/04/04 09:56:31;;;;;;;55.47;20.38;;;12.20;86.00;;;;;;8297829;28;20038;-65
2021/04/04 10:00:38;;;;;;;55.90;20.80;;;12.50;81.10;;;;;;8295498;28;20026;-65
2021/04/04 10:04:44;;;;;;;54.47;20.20;;;12.80;81.00;;;;;;8295599;28;20053;-65
2021/04/04 10:09:03;;;;;;;52.30;19.92;;;12.80;74.90;;;;;;8293316;28;20029;-65
2021/04/04 10:13:05;;;;;;;54.22;20.48;;;12.40;74.10;;;;;;8327749;28;20021;-66
2021/04/04 10:17:13;;;;;;;54.97;20.60;;;12.60;80.90;;;;;;8327851;28;20033;-65
2021/04/04 10:21:14;;;;;;;54.42;20.52;;;13.10;74.30;;;;;;8308944;28;20086;-66
2021/04/04 10:25:15;;;;;;;55.85;20.55;;;13.40;70.10;;;;;;8326909;28;20518;-66
2021/04/04 10:29:20;;;;;;;56.53;20.70;;;13.80;70.10;;;;;;8325849;28;20029;-65
2021/04/04 10:33:26;;;;;;;56.05;20.88;;;13.70;71.80;;;;;;8321811;28;20043;-66
2021/04/04 10:37:28;;;;;;;56.35;20.90;;;13.80;70.40;;;;;;8345168;28;20464;-65
2021/04/04 10:41:35;;;;;;;57.20;21.20;;;13.80;75.40;;;;;;8343994;28;20112;-65
2021/04/04 10:45:36;;;;;;;58.92;21.40;;;14.20;75.10;;;;;;8341077;28;20082;-65
2021/04/04 10:49:36;;;;;;;53.22;20.70;;;14.30;65.50;;;;;;8340161;28;20447;-65
2021/04/04 10:53:38;;;;;;;49.60;19.83;;;12.90;63.30;;;;;;8343122;28;20052;-65
2021/04/04 10:57:39;;;;;;;52.15;20.40;;;12.40;69.50;;;;;;8338640;28;20048;-66
2021/04/04 11:01:40;;;;;;;54.00;20.50;;;13.30;72.80;;;;;;8354186;28;20033;-65
2021/04/04 11:05:42;;;;;;;59.17;21.65;;;14.80;70.10;;;;;;8330316;28;20044;-65
2021/04/04 11:09:42;;;;;;;74.70;24.00;;;17.80;55.30;;;;;;8352283;28;21248;-66
2021/04/04 11:13:47;;;;;;;64.15;22.77;;;21.20;45.70;;;;;;8315803;28;20476;-65
2021/04/04 11:17:49;;;;;;;39.95;18.95;;;18.50;53.80;;;;;;8306093;28;20033;-65
2021/04/04 11:21:52;;;;;;;65.40;22.73;;;17.90;48.00;;;;;;8323971;28;20039;-66
2021/04/04 11:25:53;;;;;;;68.15;22.85;;;19.10;53.80;;;;;;8323089;28;20145;-66
2021/04/04 11:29:54;;;;;;;68.90;22.92;;;20.60;45.30;;;;;;8341942;28;20120;-66
2021/04/04 11:34:32;;;;;;;68.78;23.25;;;22.00;44.40;;;;;;8345670;28;20025;-65
2021/04/04 11:38:34;;;;;;;63.58;22.17;;;22.50;42.50;;;;;;8306885;28;20032;-66
2021/04/04 11:42:35;;;;;;;59.85;21.77;;;21.80;44.70;;;;;;8339631;28;20124;-66
2021/04/04 11:46:48;;;;;;;63.80;22.73;;;19.80;43.80;;;;;;8342185;28;20025;-66
2021/04/04 11:50:49;;;;;;;76.90;23.88;;;22.10;44.10;;;;;;8341221;28;20040;-66
2021/04/04 11:54:55;;;;;;;90.18;25.45;;;26.30;35.80;;;;;;8331065;28;20491;-64
2021/04/04 11:58:56;;;;;;;91.30;25.67;;;28.30;31.00;;;;;;8344487;28;20055;-64
2021/04/04 12:03:00;;;;;;;87.40;24.48;;;28.80;30.10;;;;;;8342665;28;20387;-64
2021/04/04 12:07:05;;;;;;;41.83;12.35;;;30.50;29.50;;;;;;8343212;28;20045;-64
2021/04/04 12:11:06;;;;;;;5.25;3.72;;;28.60;29.60;;;;;;8325440;28;20043;-65
2021/04/04 12:15:08;;;;;;;11.65;5.15;;;28.20;29.50;;;;;;8308579;28;20029;-64
2021/04/04 12:19:08;;;;;;;6.80;4.07;;;28.70;27.30;;;;;;8324289;28;20060;-64
2021/04/04 12:23:12;;;;;;;7.30;4.57;;;29.50;27.90;;;;;;8326208;28;20377;-64
2021/04/04 12:27:14;;;;;;;5.80;4.68;;;31.20;27.50;;;;;;8307875;28;20152;-65
2021/04/04 12:31:15;;;;;;;6.43;4.97;;;31.60;26.90;;;;;;8306770;28;20025;-65
2021/04/04 12:35:23;;;;;;;5.55;5.05;;;32.60;25.20;;;;;;8325976;28;20036;-65
2021/04/04 12:39:23;;;;;;;13.45;6.88;;;32.40;22.30;;;;;;8315284;28;20114;-65
2021/04/04 12:43:24;;;;;;;91.05;25.25;;;31.40;24.20;;;;;;8326922;28;20086;-65
2021/04/04 12:47:26;;;;;;;7.05;4.40;;;31.00;24.90;;;;;;8374006;22;20055;-65
2021/04/04 12:51:27;;;;;;;30.85;9.75;;;31.80;26.20;;;;;;8378317;28;20033;-65
2021/04/04 12:55:32;;;;;;;14.55;6.15;;;32.20;25.10;;;;;;8376312;28;20230;-65
2021/04/04 12:59:33;;;;;;;58.05;16.10;;;34.50;23.20;;;;;;8361488;28;20021;-64
2021/04/04 13:03:35;;;;;;;96.00;26.05;;;33.30;23.70;;;;;;8352539;28;20094;-66
2021/04/04 13:07:36;;;;;;;99.28;26.70;;;31.00;25.40;;;;;;8347172;28;20029;-66
2021/04/04 13:11:36;;;;;;;75.75;20.92;;;30.10;24.10;;;;;;8354222;28;20021;-66
2021/04/04 13:15:37;;;;;;;9.90;5.03;;;30.80;23.20;;;;;;8352081;28;20079;-67
2021/04/04 13:19:40;;;;;;;54.28;15.50;;;31.60;25.50;;;;;;8361161;28;20021;-67
2021/04/04 13:23:43;;;;;;;52.08;15.85;;;31.50;23.40;;;;;;8357443;28;20108;-66
2021/04/04 13:27:47;;;;;;;27.38;11.60;;;33.20;23.00;;;;;;8360299;28;20052;-66
2021/04/04 13:31:55;;;;;;;7.40;6.80;;;33.90;24.70;;;;;;8352940;28;20108;-66
2021/04/04 13:35:56;;;;;;;6.13;5.63;;;36.80;21.90;;;;;;8353908;28;20441;-66
2021/04/04 13:39:57;;;;;;;31.08;10.10;;;35.70;21.50;;;;;;8342337;28;20029;-65
2021/04/04 13:43:59;;;;;;;71.90;20.10;;;31.20;24.70;;;;;;8345426;28;20032;-65
2021/04/04 13:48:00;;;;;;;22.60;8.98;;;29.50;27.20;;;;;;8353567;28;20036;-65
2021/04/04 13:52:12;;;;;;;6.18;5.60;;;33.50;24.50;;;;;;8353831;28;20040;-65
2021/04/04 13:56:15;;;;;;;6.55;6.05;;;35.10;23.70;;;;;;8350575;28;21325;-65
2021/04/04 14:00:16;;;;;;;28.50;9.18;;;36.30;21.60;;;;;;8347890;28;20490;-64
2021/04/04 14:04:25;;;;;;;75.72;20.85;;;33.50;21.00;;;;;;8349422;28;20029;-65
2021/04/04 14:08:25;;;;;;;90.65;24.50;;;30.80;22.80;;;;;;8324731;28;20581;-64
2021/04/04 14:12:27;;;;;;;73.70;20.35;;;28.90;25.60;;;;;;8329244;28;20061;-64
2021/04/04 14:16:28;;;;;;;74.18;20.05;;;30.40;23.50;;;;;;8330667;28;20112;-65
2021/04/04 14:20:28;;;;;;;89.50;25.73;;;32.30;22.80;;;;;;8343706;28;20033;-64
2021/04/04 14:24:30;;;;;;;90.15;25.35;;;29.00;24.50;;;;;;8345883;28;20036;-64
2021/04/04 14:28:32;;;;;;;48.33;14.23;;;28.00;27.90;;;;;;8350219;28;20090;-65
2021/04/04 14:32:33;;;;;;;89.70;24.42;;;31.40;25.00;;;;;;8333628;28;20048;-65
2021/04/04 14:36:34;;;;;;;6.32;4.93;;;32.90;23.90;;;;;;8347007;28;20743;-65
2021/04/04 14:40:35;;;;;;;25.30;8.48;;;34.20;22.70;;;;;;8344092;28;20139;-65
2021/04/04 14:44:36;;;;;;;56.28;16.10;;;33.70;20.60;;;;;;8343890;28;20674;-65
2021/04/04 14:48:37;;;;;;;22.90;8.65;;;32.40;22.80;;;;;;8347412;28;20089;-65
2021/04/04 14:52:38;;;;;;;46.88;13.55;;;31.20;24.40;;;;;;8343889;28;20107;-65
2021/04/04 14:56:40;;;;;;;19.55;7.47;;;32.90;24.20;;;;;;8350768;28;20029;-65
2021/04/04 15:00:41;;;;;;;6.57;5.45;;;34.20;23.00;;;;;;8352723;28;20071;-65
2021/04/04 15:04:42;;;;;;;41.65;13.40;;;35.20;21.50;;;;;;8352038;28;20033;-65
2021/04/04 15:08:43;;;;;;;31.90;11.50;;;33.50;21.70;;;;;;8336040;28;20079;-66
2021/04/04 15:12:43;;;;;;;33.92;11.35;;;31.40;23.20;;;;;;8342082;28;20090;-65
2021/04/04 15:16:44;;;;;;;64.45;18.05;;;30.40;22.70;;;;;;8343170;28;20068;-65
2021/04/04 15:20:46;;;;;;;36.80;11.98;;;27.70;24.60;;;;;;8345089;28;20037;-66
2021/04/04 15:24:47;;;;;;;21.70;8.43;;;27.50;26.30;;;;;;8342619;28;20064;-66
2021/04/04 15:28:47;;;;;;;6.13;5.63;;;26.10;25.70;;;;;;8340703;28;20053;-66
2021/04/04 15:32:48;;;;;;;28.27;10.32;;;24.60;26.50;;;;;;8341694;28;20041;-65
2021/04/04 15:36:48;;;;;;;22.00;8.70;;;23.60;28.20;;;;;;8341300;28;20025;-65
2021/04/04 15:40:51;;;;;;;6.43;5.82;;;24.70;27.50;;;;;;8347365;28;20086;-66
2021/04/04 15:44:51;;;;;;;13.88;7.10;;;25.50;25.10;;;;;;8351205;28;20029;-65
2021/04/04 15:48:52;;;;;;;9.05;5.43;;;25.10;26.20;;;;;;8359635;28;20456;-65
2021/04/04 15:52:54;;;;;;;55.13;16.42;;;25.10;26.70;;;;;;8337342;28;20032;-65
2021/04/04 15:56:54;;;;;;;66.63;18.38;;;25.50;25.10;;;;;;8337926;28;20472;-65
2021/04/04 16:00:55;;;;;;;5.22;4.70;;;24.40;26.70;;;;;;8347992;28;20029;-65
2021/04/04 16:04:55;;;;;;;8.27;6.90;;;25.40;26.50;;;;;;8353713;28;20040;-66
2021/04/04 16:08:56;;;;;;;20.55;16.35;;;25.30;26.10;;;;;;8363839;28;20383;-66
2021/04/04 16:12:57;;;;;;;8.98;8.38;;;26.80;26.20;;;;;;8351712;28;20060;-66
2021/04/04 16:16:58;;;;;;;6.55;5.93;;;27.60;25.90;;;;;;8352625;28;20104;-66
2021/04/04 16:20:58;;;;;;;12.27;6.32;;;27.30;27.80;;;;;;8350107;28;20040;-66
2021/04/04 16:24:59;;;;;;;9.43;8.82;;;26.80;25.50;;;;;;8360098;28;20025;-66
2021/04/04 16:29:00;;;;;;;16.00;15.02;;;27.10;26.70;;;;;;8348383;28;20488;-66
2021/04/04 16:33:02;;;;;;;33.00;31.10;;;28.20;25.80;;;;;;8349032;28;20052;-66
2021/04/04 16:37:02;;;;;;;61.80;58.58;;;28.80;26.40;;;;;;8354865;28;20034;-66
2021/04/04 16:41:03;;;;;;;7.90;7.40;;;28.70;26.40;;;;;;8358227;28;20188;-67
2021/04/04 16:45:05;;;;;;;16.20;9.32;;;28.60;26.70;;;;;;8353110;28;20068;-65
2021/04/04 16:49:05;;;;;;;95.03;26.80;;;26.70;26.00;;;;;;8348997;28;20037;-65
2021/04/04 16:53:06;;;;;;;82.47;23.33;;;24.30;26.40;;;;;;8335550;28;20145;-65
2021/04/04 16:57:07;;;;;;;90.20;25.88;;;22.70;29.50;;;;;;8351619;28;20082;-65
2021/04/04 17:01:07;;;;;;;82.13;25.05;;;22.50;28.20;;;;;;8359038;28;20029;-65
2021/04/04 17:05:10;;;;;;;77.55;23.67;;;21.50;29.10;;;;;;8357768;28;20032;-65
2021/04/04 17:09:10;;;;;;;87.72;25.70;;;19.30;34.80;;;;;;8337223;28;20037;-65
2021/04/04 17:13:11;;;;;;;79.30;24.30;;;17.80;38.80;;;;;;8338373;28;20098;-64
2021/04/04 17:17:11;;;;;;;67.18;22.73;;;16.40;38.50;;;;;;8359887;28;20550;-65
2021/04/04 17:21:12;;;;;;;64.20;21.83;;;15.00;44.10;;;;;;8358390;28;20037;-64
2021/04/04 17:25:13;;;;;;;65.85;22.55;;;13.80;42.90;;;;;;8359307;28;20036;-65
2021/04/04 17:29:13;;;;;;;60.25;21.33;;;13.00;47.60;;;;;;8359774;28;20573;-65
2021/04/04 17:33:14;;;;;;;57.60;21.30;;;12.50;49.20;;;;;;8359487;28;20037;-64
2021/04/04 17:37:15;;;;;;;55.83;20.65;;;12.20;51.30;;;;;;8358915;28;20021;-65
2021/04/04 17:41:16;;;;;;;53.83;20.40;;;12.10;53.00;;;;;;8357908;28;20503;-65
2021/04/04 17:45:17;;;;;;;54.60;20.60;;;11.80;55.60;;;;;;8358611;28;20043;-65
2021/04/04 17:49:18;;;;;;;57.05;20.80;;;11.60;56.80;;;;;;8346117;28;20079;-65
2021/04/04 17:53:18;;;;;;;51.55;19.90;;;11.30;59.60;;;;;;8335569;28;20025;-64
2021/04/04 17:57:19;;;;;;;50.22;19.80;;;11.00;60.90;;;;;;8350471;28;20025;-64
2021/04/04 18:01:20;;;;;;;50.40;20.15;;;10.40;62.80;;;;;;8360277;28;20020;-64
2021/04/04 18:13:46;;;;;;;50.47;19.80;;;9.50;71.10;;;;;;8358862;28;20063;-64
2021/04/04 18:17:47;;;;;;;49.33;20.63;;;9.20;73.90;;;;;;8351376;28;20036;-66
2021/04/04 18:21:47;;;;;;;48.10;19.83;;;8.80;73.00;;;;;;8340426;28;20116;-66
2021/04/04 18:25:48;;;;;;;47.92;19.50;;;8.50;75.10;;;;;;8338844;28;20075;-65
2021/04/04 18:29:49;;;;;;;47.58;19.48;;;8.10;81.50;;;;;;8333511;28;20029;-65
2021/04/04 18:33:51;;;;;;;48.13;19.23;;;8.00;84.30;;;;;;8343983;28;20053;-65
2021/04/04 18:37:52;;;;;;;47.85;19.13;;;7.90;88.20;;;;;;8344392;28;20033;-65
2021/04/04 18:41:53;;;;;;;47.53;18.95;;;7.80;91.30;;;;;;8337578;28;20577;-65
2021/04/04 18:45:54;;;;;;;47.97;18.85;;;7.50;92.50;;;;;;8341574;28;20110;-65
2021/04/04 18:49:54;;;;;;;49.72;19.63;;;7.30;94.60;;;;;;8336831;28;20515;-65
2021/04/04 18:53:55;;;;;;;50.30;19.73;;;7.10;95.80;;;;;;8333317;28;20548;-65
2021/04/04 18:57:56;;;;;;;50.83;19.35;;;6.90;98.40;;;;;;8330371;28;20025;-65
2021/04/04 19:01:57;;;;;;;50.47;19.42;;;6.70;99.90;;;;;;8336858;28;20112;-65
2021/04/04 19:05:58;;;;;;;51.38;19.50;;;6.50;99.90;;;;;;8336627;28;20025;-65
2021/04/04 19:10:02;;;;;;;53.03;19.73;;;6.70;99.90;;;;;;8339381;28;20071;-65
2021/04/04 19:14:03;;;;;;;52.88;19.50;;;6.50;99.90;;;;;;8343908;28;20112;-65
2021/04/04 19:18:03;;;;;;;54.25;19.65;;;6.10;99.90;;;;;;8346777;28;20036;-65
2021/04/04 19:22:04;;;;;;;54.13;19.45;;;6.10;99.90;;;;;;8341799;28;20151;-65
2021/04/04 19:26:06;;;;;;;53.78;19.65;;;5.80;99.90;;;;;;8342882;28;20112;-65
2021/04/04 19:30:09;;;;;;;53.35;19.17;;;5.60;99.90;;;;;;8334939;28;20021;-65
2021/04/04 19:34:09;;;;;;;54.42;19.73;;;5.60;99.90;;;;;;8340648;28;20486;-65
2021/04/04 19:38:10;;;;;;;53.92;19.23;;;5.60;99.90;;;;;;8334623;28;20036;-65
2021/04/04 19:42:11;;;;;;;54.47;19.52;;;5.40;99.90;;;;;;8346049;28;20052;-65
2021/04/04 19:46:12;;;;;;;54.97;19.58;;;5.20;99.90;;;;;;8350475;28;20112;-65
2021/04/04 19:50:14;;;;;;;55.67;19.60;;;5.30;99.90;;;;;;8356841;22;20476;-66
2021/04/04 19:54:14;;;;;;;55.70;19.45;;;5.20;99.90;;;;;;8307296;28;20075;-66
2021/04/04 19:58:15;;;;;;;57.00;19.60;;;5.10;99.90;;;;;;8304735;28;20025;-67
2021/04/04 20:02:15;;;;;;;57.15;20.35;;;5.10;99.90;;;;;;8302491;28;20682;-66
2021/04/04 20:06:16;;;;;;;57.33;19.70;;;4.90;99.90;;;;;;8315492;28;20021;-66
2021/04/04 20:10:18;;;;;;;62.47;20.15;;;5.00;99.90;;;;;;8314939;28;20068;-66
2021/04/04 20:14:19;;;;;;;65.32;20.35;;;5.10;99.90;;;;;;8308924;28;20050;-66
2021/04/04 20:18:20;;;;;;;66.88;20.58;;;4.70;99.90;;;;;;8307393;28;20033;-66
2021/04/04 20:22:20;;;;;;;66.10;21.00;;;4.50;99.90;;;;;;8308127;28;20034;-66
2021/04/04 20:26:21;;;;;;;64.45;21.02;;;4.20;99.90;;;;;;8309607;28;20037;-66
2021/04/04 20:30:25;;;;;;;64.75;21.10;;;4.10;99.90;;;;;;8302854;28;20026;-66
2021/04/04 20:34:30;;;;;;;66.05;21.63;;;4.10;99.90;;;;;;8298273;28;20105;-66
2021/04/04 20:38:31;;;;;;;67.03;21.77;;;4.00;99.90;;;;;;8298438;28;20084;-66
2021/04/04 20:42:32;;;;;;;67.40;21.58;;;4.00;99.90;;;;;;8324305;28;20615;-66
2021/04/04 20:46:33;;;;;;;67.80;21.65;;;3.90;99.90;;;;;;8302984;28;20025;-66
2021/04/04 20:50:34;;;;;;;68.40;21.63;;;3.80;99.90;;;;;;8327216;28;20120;-65
2021/04/04 20:54:35;;;;;;;70.57;22.13;;;3.90;99.90;;;;;;8329395;28;20037;-66